sensor_id;sensor_type;location;lat;lon;timestamp;pressure;altitude;pressure_sealevel;temperature
71897;BMP280;59767;51.344;12.362;2023-08-30T00:01:43;162757.75;;;15.90
71897;BMP280;59767;51.344;12.362;2023-08-30T00:04:48;162757.75;;;15.90
71897;BMP280;59767;51.344;12.362;2023-08-30T00:07:56;162761.72;;;15.92
71897;BMP280;59767;51.344;12.362;2023-08-30T00:11:00;162766.94;;;15.94
71897;BMP280;59767;51.344;12.362;2023-08-30T00:14:06;162782.66;;;16.00
71897;BMP280;59767;51.344;12.362;2023-08-30T00:17:10;162774.81;;;15.97
71897;BMP280;59767;51.344;12.362;2023-08-30T00:20:15;162764.31;;;15.93
71897;BMP280;59767;51.344;12.362;2023-08-30T00:23:19;162748.59;;;15.87
71897;BMP280;59767;51.344;12.362;2023-08-30T00:26:23;162743.31;;;15.85
71897;BMP280;59767;51.344;12.362;2023-08-30T00:29:28;162738.09;;;15.83
71897;BMP280;59767;51.344;12.362;2023-08-30T00:32:32;162736.81;;;15.82
71897;BMP280;59767;51.344;12.362;2023-08-30T00:35:36;162736.81;;;15.82
71897;BMP280;59767;51.344;12.362;2023-08-30T00:38:40;162725.03;;;15.78
71897;BMP280;59767;51.344;12.362;2023-08-30T00:41:44;162714.47;;;15.74
71897;BMP280;59767;51.344;12.362;2023-08-30T00:44:48;162717.06;;;15.75
71897;BMP280;59767;51.344;12.362;2023-08-30T00:47:53;162717.06;;;15.75
71897;BMP280;59767;51.344;12.362;2023-08-30T00:50:57;162714.47;;;15.74
71897;BMP280;59767;51.344;12.362;2023-08-30T00:54:01;162714.47;;;15.74
71897;BMP280;59767;51.344;12.362;2023-08-30T00:57:06;162718.41;;;15.75
71897;BMP280;59767;51.344;12.362;2023-08-30T01:00:11;162711.91;;;15.73
71897;BMP280;59767;51.344;12.362;2023-08-30T01:03:15;162706.63;;;15.71
71897;BMP280;59767;51.344;12.362;2023-08-30T01:06:21;162706.63;;;15.71
71897;BMP280;59767;51.344;12.362;2023-08-30T01:09:25;162707.97;;;15.71
71897;BMP280;59767;51.344;12.362;2023-08-30T01:12:39;162713.13;;;15.73
71897;BMP280;59767;51.344;12.362;2023-08-30T01:15:46;162704.00;;;15.70
71897;BMP280;59767;51.344;12.362;2023-08-30T01:18:55;162698.72;;;15.68
71897;BMP280;59767;51.344;12.362;2023-08-30T01:22:12;162698.72;;;15.68
71897;BMP280;59767;51.344;12.362;2023-08-30T01:28:30;162700.06;;;15.68
71897;BMP280;59767;51.344;12.362;2023-08-30T01:31:36;162705.28;;;15.70
71897;BMP280;59767;51.344;12.362;2023-08-30T01:34:43;162704.00;;;15.70
71897;BMP280;59767;51.344;12.362;2023-08-30T01:37:51;162706.63;;;15.71
71897;BMP280;59767;51.344;12.362;2023-08-30T01:40:57;162701.34;;;15.69
71897;BMP280;59767;51.344;12.362;2023-08-30T01:44:03;162700.06;;;15.68
71897;BMP280;59767;51.344;12.362;2023-08-30T01:47:08;162696.16;;;15.67
71897;BMP280;59767;51.344;12.362;2023-08-30T01:50:13;162684.28;;;15.62
71897;BMP280;59767;51.344;12.362;2023-08-30T01:53:17;162681.72;;;15.61
71897;BMP280;59767;51.344;12.362;2023-08-30T01:56:22;162679.13;;;15.60
71897;BMP280;59767;51.344;12.362;2023-08-30T01:59:26;162672.50;;;15.58
71897;BMP280;59767;51.344;12.362;2023-08-30T02:02:31;162669.94;;;15.57
71897;BMP280;59767;51.344;12.362;2023-08-30T02:05:37;162658.09;;;15.52
71897;BMP280;59767;51.344;12.362;2023-08-30T02:08:58;162658.09;;;15.52
71897;BMP280;59767;51.344;12.362;2023-08-30T02:12:11;162655.44;;;15.51
71897;BMP280;59767;51.344;12.362;2023-08-30T02:15:17;162648.94;;;15.49
71897;BMP280;59767;51.344;12.362;2023-08-30T02:18:24;162645.00;;;15.47
71897;BMP280;59767;51.344;12.362;2023-08-30T02:21:29;162635.81;;;15.44
71897;BMP280;59767;51.344;12.362;2023-08-30T02:24:33;162625.38;;;15.40
71897;BMP280;59767;51.344;12.362;2023-08-30T02:27:37;162627.94;;;15.41
71897;BMP280;59767;51.344;12.362;2023-08-30T02:30:41;162634.50;;;15.43
71897;BMP280;59767;51.344;12.362;2023-08-30T02:33:46;162633.22;;;15.43
71897;BMP280;59767;51.344;12.362;2023-08-30T02:36:50;162631.88;;;15.42
71897;BMP280;59767;51.344;12.362;2023-08-30T02:39:54;162622.69;;;15.39
71897;BMP280;59767;51.344;12.362;2023-08-30T02:42:58;162625.38;;;15.40
71897;BMP280;59767;51.344;12.362;2023-08-30T02:46:02;162620.09;;;15.38
71897;BMP280;59767;51.344;12.362;2023-08-30T02:49:08;162612.25;;;15.35
71897;BMP280;59767;51.344;12.362;2023-08-30T02:52:13;162616.16;;;15.36
71897;BMP280;59767;51.344;12.362;2023-08-30T02:55:17;162614.81;;;15.36
71897;BMP280;59767;51.344;12.362;2023-08-30T02:58:22;162610.91;;;15.34
71897;BMP280;59767;51.344;12.362;2023-08-30T03:01:26;162603.03;;;15.31
71897;BMP280;59767;51.344;12.362;2023-08-30T03:04:31;162597.81;;;15.29
71897;BMP280;59767;51.344;12.362;2023-08-30T03:07:35;162595.19;;;15.28
71897;BMP280;59767;51.344;12.362;2023-08-30T03:10:39;162595.19;;;15.28
71897;BMP280;59767;51.344;12.362;2023-08-30T03:13:44;162601.69;;;15.31
71897;BMP280;59767;51.344;12.362;2023-08-30T03:16:48;162604.38;;;15.32
71897;BMP280;59767;51.344;12.362;2023-08-30T03:19:52;162601.69;;;15.31
71897;BMP280;59767;51.344;12.362;2023-08-30T03:22:59;162609.59;;;15.34
71897;BMP280;59767;51.344;12.362;2023-08-30T03:26:14;162606.97;;;15.33
71897;BMP280;59767;51.344;12.362;2023-08-30T03:29:19;162608.31;;;15.33
71897;BMP280;59767;51.344;12.362;2023-08-30T03:32:23;162605.66;;;15.32
71897;BMP280;59767;51.344;12.362;2023-08-30T03:35:27;162593.88;;;15.28
71897;BMP280;59767;51.344;12.362;2023-08-30T03:38:32;162582.09;;;15.23
71897;BMP280;59767;51.344;12.362;2023-08-30T03:41:36;162588.59;;;15.26
71897;BMP280;59767;51.344;12.362;2023-08-30T03:44:40;162585.97;;;15.25
71897;BMP280;59767;51.344;12.362;2023-08-30T03:47:44;162588.59;;;15.26
71897;BMP280;59767;51.344;12.362;2023-08-30T03:50:48;162588.59;;;15.26
71897;BMP280;59767;51.344;12.362;2023-08-30T03:53:52;162599.09;;;15.30
71897;BMP280;59767;51.344;12.362;2023-08-30T03:56:56;162593.88;;;15.28
71897;BMP280;59767;51.344;12.362;2023-08-30T04:00:01;162589.91;;;15.26
71897;BMP280;59767;51.344;12.362;2023-08-30T04:03:07;162584.66;;;15.24
71897;BMP280;59767;51.344;12.362;2023-08-30T04:06:13;162591.25;;;15.27
71897;BMP280;59767;51.344;12.362;2023-08-30T04:09:16;162565.03;;;15.17
71897;BMP280;59767;51.344;12.362;2023-08-30T04:12:21;162557.13;;;15.14
71897;BMP280;59767;51.344;12.362;2023-08-30T04:15:25;162541.41;;;15.08
71897;BMP280;59767;51.344;12.362;2023-08-30T04:18:29;162541.41;;;15.08
71897;BMP280;59767;51.344;12.362;2023-08-30T04:21:33;162536.19;;;15.06
71897;BMP280;59767;51.344;12.362;2023-08-30T04:24:37;162515.19;;;14.98
71897;BMP280;59767;51.344;12.362;2023-08-30T04:27:41;162506.03;;;14.94
71897;BMP280;59767;51.344;12.362;2023-08-30T04:30:46;162494.25;;;14.90
71897;BMP280;59767;51.344;12.362;2023-08-30T04:33:50;162488.97;;;14.88
71897;BMP280;59767;51.344;12.362;2023-08-30T04:36:56;162478.53;;;14.84
71897;BMP280;59767;51.344;12.362;2023-08-30T04:40:00;162478.53;;;14.84
71897;BMP280;59767;51.344;12.362;2023-08-30T04:43:05;162475.91;;;14.83
71897;BMP280;59767;51.344;12.362;2023-08-30T04:46:09;162465.41;;;14.79
71897;BMP280;59767;51.344;12.362;2023-08-30T04:49:13;162466.69;;;14.79
71897;BMP280;59767;51.344;12.362;2023-08-30T04:52:17;162461.47;;;14.77
71897;BMP280;59767;51.344;12.362;2023-08-30T04:55:24;162469.31;;;14.80
71897;BMP280;59767;51.344;12.362;2023-08-30T04:58:28;162454.91;;;14.75
71897;BMP280;59767;51.344;12.362;2023-08-30T05:01:32;162454.91;;;14.75
71897;BMP280;59767;51.344;12.362;2023-08-30T05:04:37;162477.19;;;14.83
71897;BMP280;59767;51.344;12.362;2023-08-30T05:07:41;162475.91;;;14.83
71897;BMP280;59767;51.344;12.362;2023-08-30T05:10:45;162477.19;;;14.83
71897;BMP280;59767;51.344;12.362;2023-08-30T05:13:50;162486.38;;;14.87
71897;BMP280;59767;51.344;12.362;2023-08-30T05:16:54;162488.97;;;14.88
71897;BMP280;59767;51.344;12.362;2023-08-30T05:19:59;162486.38;;;14.87
71897;BMP280;59767;51.344;12.362;2023-08-30T05:23:03;162481.13;;;14.85
71897;BMP280;59767;51.344;12.362;2023-08-30T05:26:11;162479.84;;;14.84
71897;BMP280;59767;51.344;12.362;2023-08-30T05:29:17;162477.19;;;14.83
71897;BMP280;59767;51.344;12.362;2023-08-30T05:32:22;162481.13;;;14.85
71897;BMP280;59767;51.344;12.362;2023-08-30T05:35:26;162481.13;;;14.85
71897;BMP280;59767;51.344;12.362;2023-08-30T05:38:30;162481.13;;;14.85
71897;BMP280;59767;51.344;12.362;2023-08-30T05:41:34;162490.31;;;14.88
71897;BMP280;59767;51.344;12.362;2023-08-30T05:44:38;162492.91;;;14.89
71897;BMP280;59767;51.344;12.362;2023-08-30T05:47:43;162513.84;;;14.97
71897;BMP280;59767;51.344;12.362;2023-08-30T05:50:46;162519.13;;;14.99
71897;BMP280;59767;51.344;12.362;2023-08-30T05:53:51;162509.97;;;14.96
71897;BMP280;59767;51.344;12.362;2023-08-30T05:56:55;162513.84;;;14.97
71897;BMP280;59767;51.344;12.362;2023-08-30T06:00:00;162519.13;;;14.99
71897;BMP280;59767;51.344;12.362;2023-08-30T06:03:04;162523.06;;;15.01
71897;BMP280;59767;51.344;12.362;2023-08-30T06:06:08;162528.31;;;15.03
71897;BMP280;59767;51.344;12.362;2023-08-30T06:09:12;162540.13;;;15.07
71897;BMP280;59767;51.344;12.362;2023-08-30T06:12:17;162549.31;;;15.11
71897;BMP280;59767;51.344;12.362;2023-08-30T06:15:21;162575.53;;;15.21
71897;BMP280;59767;51.344;12.362;2023-08-30T06:18:30;162597.81;;;15.29
71897;BMP280;59767;51.344;12.362;2023-08-30T06:21:36;162622.69;;;15.39
71897;BMP280;59767;51.344;12.362;2023-08-30T06:24:40;162654.22;;;15.51
71897;BMP280;59767;51.344;12.362;2023-08-30T06:27:56;162684.28;;;15.62
71897;BMP280;59767;51.344;12.362;2023-08-30T06:31:00;162715.78;;;15.74
71897;BMP280;59767;51.344;12.362;2023-08-30T06:34:04;162736.81;;;15.82
71897;BMP280;59767;51.344;12.362;2023-08-30T06:37:09;162782.66;;;16.00
71897;BMP280;59767;51.344;12.362;2023-08-30T06:40:13;162795.78;;;16.05
71897;BMP280;59767;51.344;12.362;2023-08-30T06:43:17;162791.84;;;16.03
71897;BMP280;59767;51.344;12.362;2023-08-30T06:46:22;162790.56;;;16.03
71897;BMP280;59767;51.344;12.362;2023-08-30T06:49:26;162831.22;;;16.18
71897;BMP280;59767;51.344;12.362;2023-08-30T06:52:30;162856.13;;;16.28
71897;BMP280;59767;51.344;12.362;2023-08-30T06:55:35;162894.16;;;16.42
71897;BMP280;59767;51.344;12.362;2023-08-30T06:58:41;162930.84;;;16.56
71897;BMP280;59767;51.344;12.362;2023-08-30T07:01:45;162959.72;;;16.67
71897;BMP280;59767;51.344;12.362;2023-08-30T07:04:49;162984.63;;;16.77
71897;BMP280;59767;51.344;12.362;2023-08-30T07:07:53;162999.09;;;16.82
71897;BMP280;59767;51.344;12.362;2023-08-30T07:10:58;163003.03;;;16.84
71897;BMP280;59767;51.344;12.362;2023-08-30T07:14:02;163026.63;;;16.93
71897;BMP280;59767;51.344;12.362;2023-08-30T07:17:07;163046.34;;;17.00
71897;BMP280;59767;51.344;12.362;2023-08-30T07:20:11;163073.91;;;17.11
71897;BMP280;59767;51.344;12.362;2023-08-30T07:23:15;163081.75;;;17.14
71897;BMP280;59767;51.344;12.362;2023-08-30T07:26:19;163113.22;;;17.26
71897;BMP280;59767;51.344;12.362;2023-08-30T07:29:24;163119.81;;;17.28
71897;BMP280;59767;51.344;12.362;2023-08-30T07:32:28;163132.91;;;17.33
71897;BMP280;59767;51.344;12.362;2023-08-30T07:35:32;163159.16;;;17.43
71897;BMP280;59767;51.344;12.362;2023-08-30T07:38:37;163165.72;;;17.46
71897;BMP280;59767;51.344;12.362;2023-08-30T07:41:41;163174.91;;;17.49
71897;BMP280;59767;51.344;12.362;2023-08-30T07:44:45;163189.31;;;17.55
71897;BMP280;59767;51.344;12.362;2023-08-30T07:47:49;163206.41;;;17.61
71897;BMP280;59767;51.344;12.362;2023-08-30T07:50:53;163239.19;;;17.74
71897;BMP280;59767;51.344;12.362;2023-08-30T07:53:57;163272.03;;;17.86
71897;BMP280;59767;51.344;12.362;2023-08-30T07:57:01;163299.59;;;17.97
71897;BMP280;59767;51.344;12.362;2023-08-30T08:00:07;163325.81;;;18.07
71897;BMP280;59767;51.344;12.362;2023-08-30T08:03:12;163344.22;;;18.14
71897;BMP280;59767;51.344;12.362;2023-08-30T08:06:16;163356.03;;;18.18
71897;BMP280;59767;51.344;12.362;2023-08-30T08:09:20;163384.94;;;18.29
71897;BMP280;59767;51.344;12.362;2023-08-30T08:12:26;163441.34;;;18.51
71897;BMP280;59767;51.344;12.362;2023-08-30T08:15:30;163538.50;;;18.88
71897;BMP280;59767;51.344;12.362;2023-08-30T08:18:35;163598.91;;;19.11
71897;BMP280;59767;51.344;12.362;2023-08-30T08:21:39;163596.28;;;19.10
71897;BMP280;59767;51.344;12.362;2023-08-30T08:24:43;163621.22;;;19.19
71897;BMP280;59767;51.344;12.362;2023-08-30T08:27:49;163630.41;;;19.23
71897;BMP280;59767;51.344;12.362;2023-08-30T08:30:55;163656.66;;;19.33
71897;BMP280;59767;51.344;12.362;2023-08-30T08:34:11;163651.44;;;19.31
71897;BMP280;59767;51.344;12.362;2023-08-30T08:37:14;163680.28;;;19.42
71897;BMP280;59767;51.344;12.362;2023-08-30T08:40:19;163665.88;;;19.36
71897;BMP280;59767;51.344;12.362;2023-08-30T08:43:35;163710.53;;;19.53
71897;BMP280;59767;51.344;12.362;2023-08-30T08:46:41;163724.94;;;19.58
71897;BMP280;59767;51.344;12.362;2023-08-30T08:49:47;163714.44;;;19.54
71897;BMP280;59767;51.344;12.362;2023-08-30T08:52:51;163722.34;;;19.58
71897;BMP280;59767;51.344;12.362;2023-08-30T08:56:04;163740.69;;;19.64
71897;BMP280;59767;51.344;12.362;2023-08-30T08:59:09;163805.06;;;19.89
71897;BMP280;59767;51.344;12.362;2023-08-30T09:02:14;163824.75;;;19.96
71897;BMP280;59767;51.344;12.362;2023-08-30T09:05:19;163840.50;;;20.02
71897;BMP280;59767;51.344;12.362;2023-08-30T09:08:24;163881.25;;;20.18
71897;BMP280;59767;51.344;12.362;2023-08-30T09:11:29;163893.06;;;20.22
71897;BMP280;59767;51.344;12.362;2023-08-30T09:14:56;163929.88;;;20.36
71897;BMP280;59767;51.344;12.362;2023-08-30T09:18:01;163961.38;;;20.48
71897;BMP280;59767;51.344;12.362;2023-08-30T09:21:06;163950.88;;;20.44
71897;BMP280;59767;51.344;12.362;2023-08-30T09:24:11;163960.09;;;20.48
71897;BMP280;59767;51.344;12.362;2023-08-30T09:27:15;163990.31;;;20.59
71897;BMP280;59767;51.344;12.362;2023-08-30T09:30:22;163992.94;;;20.60
71897;BMP280;59767;51.344;12.362;2023-08-30T09:33:31;163918.06;;;20.32
71897;BMP280;59767;51.344;12.362;2023-08-30T09:36:37;163882.53;;;20.18
71897;BMP280;59767;51.344;12.362;2023-08-30T09:39:48;163823.50;;;19.96
71897;BMP280;59767;51.344;12.362;2023-08-30T09:42:53;163764.38;;;19.73
71897;BMP280;59767;51.344;12.362;2023-08-30T09:46:15;163747.28;;;19.67
71897;BMP280;59767;51.344;12.362;2023-08-30T09:49:24;163769.56;;;19.75
71897;BMP280;59767;51.344;12.362;2023-08-30T09:52:30;163753.84;;;19.69
71897;BMP280;59767;51.344;12.362;2023-08-30T09:55:35;163786.66;;;19.82
71897;BMP280;59767;51.344;12.362;2023-08-30T09:58:40;163848.41;;;20.05
71897;BMP280;59767;51.344;12.362;2023-08-30T10:01:47;163864.19;;;20.11
71897;BMP280;59767;51.344;12.362;2023-08-30T10:04:56;163857.56;;;20.09
71897;BMP280;59767;51.344;12.362;2023-08-30T10:08:02;163853.66;;;20.07
71897;BMP280;59767;51.344;12.362;2023-08-30T10:11:09;163832.66;;;19.99
71897;BMP280;59767;51.344;12.362;2023-08-30T10:14:14;163851.03;;;20.06
71897;BMP280;59767;51.344;12.362;2023-08-30T10:17:20;163839.22;;;20.02
71897;BMP280;59767;51.344;12.362;2023-08-30T10:20:26;163831.38;;;19.99
71897;BMP280;59767;51.344;12.362;2023-08-30T10:23:32;163815.53;;;19.93
71897;BMP280;59767;51.344;12.362;2023-08-30T10:26:37;163778.81;;;19.79
71897;BMP280;59767;51.344;12.362;2023-08-30T10:29:43;163790.56;;;19.83
71897;BMP280;59767;51.344;12.362;2023-08-30T10:32:48;163786.66;;;19.82
71897;BMP280;59767;51.344;12.362;2023-08-30T10:35:52;163816.88;;;19.93
71897;BMP280;59767;51.344;12.362;2023-08-30T10:38:58;163910.19;;;20.29
71897;BMP280;59767;51.344;12.362;2023-08-30T10:42:13;163985.06;;;20.57
71897;BMP280;59767;51.344;12.362;2023-08-30T10:45:23;163999.44;;;20.63
71897;BMP280;59767;51.344;12.362;2023-08-30T10:48:38;164016.56;;;20.69
71897;BMP280;59767;51.344;12.362;2023-08-30T10:51:42;164020.47;;;20.71
71897;BMP280;59767;51.344;12.362;2023-08-30T10:54:49;164011.28;;;20.67
71897;BMP280;59767;51.344;12.362;2023-08-30T10:57:59;164017.91;;;20.70
71897;BMP280;59767;51.344;12.362;2023-08-30T11:01:04;163991.59;;;20.60
71897;BMP280;59767;51.344;12.362;2023-08-30T11:04:12;164006.09;;;20.65
71897;BMP280;59767;51.344;12.362;2023-08-30T11:07:18;164016.56;;;20.69
71897;BMP280;59767;51.344;12.362;2023-08-30T11:10:23;164032.31;;;20.75
71897;BMP280;59767;51.344;12.362;2023-08-30T11:13:27;164108.53;;;21.04
71897;BMP280;59767;51.344;12.362;2023-08-30T11:16:31;164200.50;;;21.39
71897;BMP280;59767;51.344;12.362;2023-08-30T11:19:35;164271.47;;;21.66
71897;BMP280;59767;51.344;12.362;2023-08-30T11:22:42;164312.22;;;21.82
71897;BMP280;59767;51.344;12.362;2023-08-30T11:25:50;164309.66;;;21.81
71897;BMP280;59767;51.344;12.362;2023-08-30T11:28:54;164320.13;;;21.85
71897;BMP280;59767;51.344;12.362;2023-08-30T11:31:58;164300.38;;;21.77
71897;BMP280;59767;51.344;12.362;2023-08-30T11:35:03;164293.84;;;21.75
71897;BMP280;59767;51.344;12.362;2023-08-30T11:38:07;164291.19;;;21.74
71897;BMP280;59767;51.344;12.362;2023-08-30T11:41:12;164306.97;;;21.80
71897;BMP280;59767;51.344;12.362;2023-08-30T11:44:16;164312.22;;;21.82
71897;BMP280;59767;51.344;12.362;2023-08-30T11:47:24;164345.06;;;21.94
71897;BMP280;59767;51.344;12.362;2023-08-30T11:50:29;164346.41;;;21.95
71897;BMP280;59767;51.344;12.362;2023-08-30T11:53:43;164291.19;;;21.74
71897;BMP280;59767;51.344;12.362;2023-08-30T11:56:48;164280.69;;;21.70
71897;BMP280;59767;51.344;12.362;2023-08-30T11:59:53;164272.81;;;21.67
71897;BMP280;59767;51.344;12.362;2023-08-30T12:02:57;164281.97;;;21.70
71897;BMP280;59767;51.344;12.362;2023-08-30T12:06:01;164268.91;;;21.65
71897;BMP280;59767;51.344;12.362;2023-08-30T12:09:11;164257.03;;;21.61
71897;BMP280;59767;51.344;12.362;2023-08-30T12:12:16;164225.50;;;21.49
71897;BMP280;59767;51.344;12.362;2023-08-30T12:15:22;164250.44;;;21.58
71897;BMP280;59767;51.344;12.362;2023-08-30T12:18:32;164304.34;;;21.79
71897;BMP280;59767;51.344;12.362;2023-08-30T12:21:41;164355.63;;;21.98
71897;BMP280;59767;51.344;12.362;2023-08-30T12:24:46;164410.81;;;22.19
71897;BMP280;59767;51.344;12.362;2023-08-30T12:27:50;164441.03;;;22.31
71897;BMP280;59767;51.344;12.362;2023-08-30T12:30:55;164423.94;;;22.24
71897;BMP280;59767;51.344;12.362;2023-08-30T12:33:59;164384.53;;;22.09
71897;BMP280;59767;51.344;12.362;2023-08-30T12:37:04;164401.63;;;22.16
71897;BMP280;59767;51.344;12.362;2023-08-30T12:40:09;164371.38;;;22.04
71897;BMP280;59767;51.344;12.362;2023-08-30T12:43:14;164359.59;;;22.00
71897;BMP280;59767;51.344;12.362;2023-08-30T12:46:19;164343.78;;;21.94
71897;BMP280;59767;51.344;12.362;2023-08-30T12:49:23;164318.84;;;21.84
71897;BMP280;59767;51.344;12.362;2023-08-30T12:52:27;164310.94;;;21.81
71897;BMP280;59767;51.344;12.362;2023-08-30T12:55:32;164358.25;;;21.99
71897;BMP280;59767;51.344;12.362;2023-08-30T12:58:37;164368.78;;;22.03
71897;BMP280;59767;51.344;12.362;2023-08-30T13:01:42;164338.53;;;21.92
71897;BMP280;59767;51.344;12.362;2023-08-30T13:04:46;164316.19;;;21.83
71897;BMP280;59767;51.344;12.362;2023-08-30T13:07:50;164314.88;;;21.83
71897;BMP280;59767;51.344;12.362;2023-08-30T13:10:54;164287.28;;;21.72
71897;BMP280;59767;51.344;12.362;2023-08-30T13:13:58;164300.38;;;21.77
71897;BMP280;59767;51.344;12.362;2023-08-30T13:17:03;164330.63;;;21.89
71897;BMP280;59767;51.344;12.362;2023-08-30T13:20:08;164355.63;;;21.98
71897;BMP280;59767;51.344;12.362;2023-08-30T13:23:12;164297.81;;;21.76
71897;BMP280;59767;51.344;12.362;2023-08-30T13:26:16;164255.75;;;21.60
71897;BMP280;59767;51.344;12.362;2023-08-30T13:29:20;164222.88;;;21.48
71897;BMP280;59767;51.344;12.362;2023-08-30T13:32:24;164208.38;;;21.42
71897;BMP280;59767;51.344;12.362;2023-08-30T13:35:29;164195.28;;;21.37
71897;BMP280;59767;51.344;12.362;2023-08-30T13:38:33;164197.88;;;21.38
71897;BMP280;59767;51.344;12.362;2023-08-30T13:41:38;164243.91;;;21.56
71897;BMP280;59767;51.344;12.362;2023-08-30T13:44:42;164255.75;;;21.60
71897;BMP280;59767;51.344;12.362;2023-08-30T13:47:47;164258.38;;;21.61
71897;BMP280;59767;51.344;12.362;2023-08-30T13:50:52;164276.78;;;21.68
71897;BMP280;59767;51.344;12.362;2023-08-30T13:53:56;164287.28;;;21.72
71897;BMP280;59767;51.344;12.362;2023-08-30T13:57:00;164279.41;;;21.69
71897;BMP280;59767;51.344;12.362;2023-08-30T14:00:05;164251.78;;;21.59
71897;BMP280;59767;51.344;12.362;2023-08-30T14:03:14;164242.56;;;21.55
71897;BMP280;59767;51.344;12.362;2023-08-30T14:06:19;164242.56;;;21.55
71897;BMP280;59767;51.344;12.362;2023-08-30T14:09:24;164239.97;;;21.54
71897;BMP280;59767;51.344;12.362;2023-08-30T14:12:28;164270.16;;;21.66
71897;BMP280;59767;51.344;12.362;2023-08-30T14:15:32;164272.81;;;21.67
71897;BMP280;59767;51.344;12.362;2023-08-30T14:18:36;164296.47;;;21.76
71897;BMP280;59767;51.344;12.362;2023-08-30T14:21:40;164292.53;;;21.74
71897;BMP280;59767;51.344;12.362;2023-08-30T14:24:44;164318.84;;;21.84
71897;BMP280;59767;51.344;12.362;2023-08-30T14:28:09;164329.34;;;21.88
71897;BMP280;59767;51.344;12.362;2023-08-30T14:31:14;164325.38;;;21.87
71897;BMP280;59767;51.344;12.362;2023-08-30T14:34:20;164334.59;;;21.90
71897;BMP280;59767;51.344;12.362;2023-08-30T14:37:24;164333.25;;;21.90
71897;BMP280;59767;51.344;12.362;2023-08-30T14:40:28;164316.19;;;21.83
71897;BMP280;59767;51.344;12.362;2023-08-30T14:43:32;164270.16;;;21.66
71897;BMP280;59767;51.344;12.362;2023-08-30T14:46:37;164255.75;;;21.60
71897;BMP280;59767;51.344;12.362;2023-08-30T14:49:41;164224.16;;;21.48
71897;BMP280;59767;51.344;12.362;2023-08-30T14:52:45;164207.09;;;21.42
71897;BMP280;59767;51.344;12.362;2023-08-30T14:55:49;164218.94;;;21.46
71897;BMP280;59767;51.344;12.362;2023-08-30T14:58:54;164237.34;;;21.53
71897;BMP280;59767;51.344;12.362;2023-08-30T15:01:58;164266.22;;;21.64
71897;BMP280;59767;51.344;12.362;2023-08-30T15:05:02;164295.13;;;21.75
71897;BMP280;59767;51.344;12.362;2023-08-30T15:08:06;164297.81;;;21.76
71897;BMP280;59767;51.344;12.362;2023-08-30T15:11:11;164301.72;;;21.78
71897;BMP280;59767;51.344;12.362;2023-08-30T15:14:15;164292.53;;;21.74
71897;BMP280;59767;51.344;12.362;2023-08-30T15:17:19;164276.78;;;21.68
71897;BMP280;59767;51.344;12.362;2023-08-30T15:20:23;164281.97;;;21.70
71897;BMP280;59767;51.344;12.362;2023-08-30T15:23:27;164270.16;;;21.66
71897;BMP280;59767;51.344;12.362;2023-08-30T15:26:31;164266.22;;;21.64
71897;BMP280;59767;51.344;12.362;2023-08-30T15:29:36;164224.16;;;21.48
71897;BMP280;59767;51.344;12.362;2023-08-30T15:32:40;164200.50;;;21.39
71897;BMP280;59767;51.344;12.362;2023-08-30T15:35:45;164187.41;;;21.34
71897;BMP280;59767;51.344;12.362;2023-08-30T15:38:49;164182.09;;;21.32
71897;BMP280;59767;51.344;12.362;2023-08-30T15:41:53;164176.88;;;21.30
71897;BMP280;59767;51.344;12.362;2023-08-30T15:44:59;164174.25;;;21.29
71897;BMP280;59767;51.344;12.362;2023-08-30T15:48:03;164157.13;;;21.23
71897;BMP280;59767;51.344;12.362;2023-08-30T15:51:07;164146.63;;;21.19
71897;BMP280;59767;51.344;12.362;2023-08-30T15:54:27;164145.34;;;21.18
71897;BMP280;59767;51.344;12.362;2023-08-30T15:57:31;164158.44;;;21.23
71897;BMP280;59767;51.344;12.362;2023-08-30T16:00:35;164162.41;;;21.25
71897;BMP280;59767;51.344;12.362;2023-08-30T16:03:45;164161.13;;;21.24
71897;BMP280;59767;51.344;12.362;2023-08-30T16:06:49;164170.28;;;21.28
71897;BMP280;59767;51.344;12.362;2023-08-30T16:09:54;164169.00;;;21.27
71897;BMP280;59767;51.344;12.362;2023-08-30T16:12:59;164166.38;;;21.26
71897;BMP280;59767;51.344;12.362;2023-08-30T16:16:04;164166.38;;;21.26
71897;BMP280;59767;51.344;12.362;2023-08-30T16:19:08;164175.56;;;21.30
71897;BMP280;59767;51.344;12.362;2023-08-30T16:22:14;164174.25;;;21.29
71897;BMP280;59767;51.344;12.362;2023-08-30T16:25:20;164178.16;;;21.31
71897;BMP280;59767;51.344;12.362;2023-08-30T16:28:25;164174.25;;;21.29
71897;BMP280;59767;51.344;12.362;2023-08-30T16:31:29;164166.38;;;21.26
71897;BMP280;59767;51.344;12.362;2023-08-30T16:34:33;164158.44;;;21.23
71897;BMP280;59767;51.344;12.362;2023-08-30T16:37:39;164147.97;;;21.19
71897;BMP280;59767;51.344;12.362;2023-08-30T16:40:43;164132.19;;;21.13
71897;BMP280;59767;51.344;12.362;2023-08-30T16:43:47;164119.06;;;21.08
71897;BMP280;59767;51.344;12.362;2023-08-30T16:46:51;164117.72;;;21.08
71897;BMP280;59767;51.344;12.362;2023-08-30T16:49:55;164109.88;;;21.05
71897;BMP280;59767;51.344;12.362;2023-08-30T16:52:59;164094.09;;;20.99
71897;BMP280;59767;51.344;12.362;2023-08-30T16:56:03;164082.25;;;20.94
71897;BMP280;59767;51.344;12.362;2023-08-30T16:59:07;164073.06;;;20.91
71897;BMP280;59767;51.344;12.362;2023-08-30T17:02:15;164058.63;;;20.85
71897;BMP280;59767;51.344;12.362;2023-08-30T17:05:19;164050.75;;;20.82
71897;BMP280;59767;51.344;12.362;2023-08-30T17:08:23;164033.63;;;20.76
71897;BMP280;59767;51.344;12.362;2023-08-30T17:11:28;164024.44;;;20.72
71897;BMP280;59767;51.344;12.362;2023-08-30T17:14:33;164015.28;;;20.69
71897;BMP280;59767;51.344;12.362;2023-08-30T17:17:37;163982.41;;;20.56
71897;BMP280;59767;51.344;12.362;2023-08-30T17:20:44;163964.03;;;20.49